sensor_id;sensor_type;location;lat;lon;timestamp;P1;durP1;ratioP1;P2;durP2;ratioP2
34134;SDS011;20410;55.578;12.968;2023-05-29T00:01:07;15.60;;;4.17;;
34134;SDS011;20410;55.578;12.968;2023-05-29T00:03:34;17.30;;;4.87;;
34134;SDS011;20410;55.578;12.968;2023-05-29T00:06:01;16.17;;;4.40;;
34134;SDS011;20410;55.578;12.968;2023-05-29T00:08:27;17.77;;;4.57;;
34134;SDS011;20410;55.578;12.968;2023-05-29T00:10:53;17.67;;;4.73;;
34134;SDS011;20410;55.578;12.968;2023-05-29T00:13:19;16.87;;;4.73;;
34134;SDS011;20410;55.578;12.968;2023-05-29T00:15:46;15.87;;;4.40;;
34134;SDS011;20410;55.578;12.968;2023-05-29T00:18:12;13.73;;;4.47;;
34134;SDS011;20410;55.578;12.968;2023-05-29T00:20:38;15.90;;;4.60;;
34134;SDS011;20410;55.578;12.968;2023-05-29T00:23:03;17.13;;;4.30;;
34134;SDS011;20410;55.578;12.968;2023-05-29T00:25:31;15.57;;;4.67;;
34134;SDS011;20410;55.578;12.968;2023-05-29T00:27:56;14.87;;;5.20;;
34134;SDS011;20410;55.578;12.968;2023-05-29T00:30:22;21.23;;;4.70;;
34134;SDS011;20410;55.578;12.968;2023-05-29T00:32:48;14.07;;;4.10;;
34134;SDS011;20410;55.578;12.968;2023-05-29T00:35:13;17.93;;;4.87;;
34134;SDS011;20410;55.578;12.968;2023-05-29T00:37:39;16.07;;;4.80;;
34134;SDS011;20410;55.578;12.968;2023-05-29T00:40:05;18.00;;;5.03;;
34134;SDS011;20410;55.578;12.968;2023-05-29T00:42:31;18.70;;;5.13;;
34134;SDS011;20410;55.578;12.968;2023-05-29T00:44:57;16.43;;;4.40;;
34134;SDS011;20410;55.578;12.968;2023-05-29T00:47:22;14.23;;;4.23;;
34134;SDS011;20410;55.578;12.968;2023-05-29T00:49:48;18.23;;;4.40;;
34134;SDS011;20410;55.578;12.968;2023-05-29T00:52:16;15.97;;;4.67;;
34134;SDS011;20410;55.578;12.968;2023-05-29T00:54:43;18.23;;;4.80;;
34134;SDS011;20410;55.578;12.968;2023-05-29T00:57:10;20.57;;;5.50;;
34134;SDS011;20410;55.578;12.968;2023-05-29T00:59:38;16.73;;;5.13;;
34134;SDS011;20410;55.578;12.968;2023-05-29T01:02:05;17.50;;;4.47;;
34134;SDS011;20410;55.578;12.968;2023-05-29T01:04:31;16.00;;;4.57;;
34134;SDS011;20410;55.578;12.968;2023-05-29T01:06:59;17.27;;;5.03;;
34134;SDS011;20410;55.578;12.968;2023-05-29T01:09:28;15.20;;;4.50;;
34134;SDS011;20410;55.578;12.968;2023-05-29T01:12:19;15.77;;;4.53;;
34134;SDS011;20410;55.578;12.968;2023-05-29T01:21:11;23.27;;;5.10;;
34134;SDS011;20410;55.578;12.968;2023-05-29T01:24:03;19.77;;;5.20;;
34134;SDS011;20410;55.578;12.968;2023-05-29T01:26:50;14.30;;;4.47;;
34134;SDS011;20410;55.578;12.968;2023-05-29T01:29:29;15.23;;;5.10;;
34134;SDS011;20410;55.578;12.968;2023-05-29T01:31:56;17.00;;;4.83;;
34134;SDS011;20410;55.578;12.968;2023-05-29T01:34:23;20.53;;;5.07;;
34134;SDS011;20410;55.578;12.968;2023-05-29T01:36:48;16.67;;;4.80;;
34134;SDS011;20410;55.578;12.968;2023-05-29T01:39:14;16.57;;;4.23;;
34134;SDS011;20410;55.578;12.968;2023-05-29T01:41:41;15.57;;;5.37;;
34134;SDS011;20410;55.578;12.968;2023-05-29T01:44:09;16.17;;;4.60;;
34134;SDS011;20410;55.578;12.968;2023-05-29T01:46:39;15.70;;;4.70;;
34134;SDS011;20410;55.578;12.968;2023-05-29T01:49:06;19.10;;;4.73;;
34134;SDS011;20410;55.578;12.968;2023-05-29T01:51:33;18.47;;;5.17;;
34134;SDS011;20410;55.578;12.968;2023-05-29T01:53:59;16.43;;;4.70;;
34134;SDS011;20410;55.578;12.968;2023-05-29T01:56:26;17.77;;;4.37;;
34134;SDS011;20410;55.578;12.968;2023-05-29T01:58:52;16.90;;;4.63;;
34134;SDS011;20410;55.578;12.968;2023-05-29T02:01:22;19.77;;;4.80;;
34134;SDS011;20410;55.578;12.968;2023-05-29T02:03:48;16.93;;;4.43;;
34134;SDS011;20410;55.578;12.968;2023-05-29T02:06:14;13.80;;;4.93;;
34134;SDS011;20410;55.578;12.968;2023-05-29T02:08:40;14.97;;;4.97;;
34134;SDS011;20410;55.578;12.968;2023-05-29T02:11:06;22.53;;;5.13;;
34134;SDS011;20410;55.578;12.968;2023-05-29T02:13:31;22.90;;;5.03;;
34134;SDS011;20410;55.578;12.968;2023-05-29T02:15:57;19.13;;;5.00;;
34134;SDS011;20410;55.578;12.968;2023-05-29T02:18:23;17.53;;;4.70;;
34134;SDS011;20410;55.578;12.968;2023-05-29T02:20:48;21.17;;;5.20;;
34134;SDS011;20410;55.578;12.968;2023-05-29T02:23:14;16.53;;;4.90;;
34134;SDS011;20410;55.578;12.968;2023-05-29T02:25:40;15.40;;;4.07;;
34134;SDS011;20410;55.578;12.968;2023-05-29T02:28:06;15.03;;;5.20;;
34134;SDS011;20410;55.578;12.968;2023-05-29T02:30:32;15.40;;;4.70;;
34134;SDS011;20410;55.578;12.968;2023-05-29T02:33:00;21.33;;;5.33;;
34134;SDS011;20410;55.578;12.968;2023-05-29T02:35:25;18.10;;;4.73;;
34134;SDS011;20410;55.578;12.968;2023-05-29T02:37:51;17.47;;;5.23;;
34134;SDS011;20410;55.578;12.968;2023-05-29T02:40:18;18.63;;;4.73;;
34134;SDS011;20410;55.578;12.968;2023-05-29T02:42:44;17.70;;;4.87;;
34134;SDS011;20410;55.578;12.968;2023-05-29T02:45:10;15.57;;;4.30;;
34134;SDS011;20410;55.578;12.968;2023-05-29T02:47:37;17.50;;;5.03;;
34134;SDS011;20410;55.578;12.968;2023-05-29T02:50:03;13.87;;;4.60;;
34134;SDS011;20410;55.578;12.968;2023-05-29T02:52:31;17.83;;;5.53;;
34134;SDS011;20410;55.578;12.968;2023-05-29T02:54:57;23.80;;;5.03;;
34134;SDS011;20410;55.578;12.968;2023-05-29T02:57:23;19.93;;;4.73;;
34134;SDS011;20410;55.578;12.968;2023-05-29T02:59:49;18.70;;;5.13;;
34134;SDS011;20410;55.578;12.968;2023-05-29T03:02:16;15.20;;;4.50;;
34134;SDS011;20410;55.578;12.968;2023-05-29T03:04:42;17.47;;;5.03;;
34134;SDS011;20410;55.578;12.968;2023-05-29T03:07:09;17.97;;;5.10;;
34134;SDS011;20410;55.578;12.968;2023-05-29T03:09:34;15.40;;;4.57;;
34134;SDS011;20410;55.578;12.968;2023-05-29T03:12:00;17.97;;;5.07;;
34134;SDS011;20410;55.578;12.968;2023-05-29T03:14:26;18.30;;;5.00;;
34134;SDS011;20410;55.578;12.968;2023-05-29T03:16:52;17.20;;;4.93;;
34134;SDS011;20410;55.578;12.968;2023-05-29T03:19:18;17.37;;;4.73;;
34134;SDS011;20410;55.578;12.968;2023-05-29T03:21:44;17.17;;;5.00;;
34134;SDS011;20410;55.578;12.968;2023-05-29T03:24:10;20.63;;;5.50;;
34134;SDS011;20410;55.578;12.968;2023-05-29T03:26:36;21.30;;;4.97;;
34134;SDS011;20410;55.578;12.968;2023-05-29T03:29:02;17.47;;;5.00;;
34134;SDS011;20410;55.578;12.968;2023-05-29T03:31:27;21.00;;;5.90;;
34134;SDS011;20410;55.578;12.968;2023-05-29T03:33:53;15.47;;;5.40;;
34134;SDS011;20410;55.578;12.968;2023-05-29T03:36:19;20.00;;;5.53;;
34134;SDS011;20410;55.578;12.968;2023-05-29T03:38:44;21.70;;;5.67;;
34134;SDS011;20410;55.578;12.968;2023-05-29T03:41:10;15.57;;;5.00;;
34134;SDS011;20410;55.578;12.968;2023-05-29T03:43:35;17.00;;;4.83;;
34134;SDS011;20410;55.578;12.968;2023-05-29T03:46:02;19.40;;;5.63;;
34134;SDS011;20410;55.578;12.968;2023-05-29T03:48:27;18.10;;;4.70;;
34134;SDS011;20410;55.578;12.968;2023-05-29T03:50:53;20.90;;;5.03;;
34134;SDS011;20410;55.578;12.968;2023-05-29T03:53:18;18.10;;;5.13;;
34134;SDS011;20410;55.578;12.968;2023-05-29T03:55:44;19.20;;;5.00;;
34134;SDS011;20410;55.578;12.968;2023-05-29T03:58:10;20.43;;;5.60;;
34134;SDS011;20410;55.578;12.968;2023-05-29T04:00:37;19.50;;;4.87;;
34134;SDS011;20410;55.578;12.968;2023-05-29T04:03:03;15.50;;;4.47;;
34134;SDS011;20410;55.578;12.968;2023-05-29T04:05:30;23.80;;;5.57;;
34134;SDS011;20410;55.578;12.968;2023-05-29T04:07:56;18.60;;;4.67;;
34134;SDS011;20410;55.578;12.968;2023-05-29T04:10:21;17.43;;;5.03;;
34134;SDS011;20410;55.578;12.968;2023-05-29T04:12:48;19.60;;;4.87;;
34134;SDS011;20410;55.578;12.968;2023-05-29T04:15:14;19.10;;;4.83;;
34134;SDS011;20410;55.578;12.968;2023-05-29T04:17:39;23.67;;;5.30;;
34134;SDS011;20410;55.578;12.968;2023-05-29T04:20:05;19.80;;;5.63;;
34134;SDS011;20410;55.578;12.968;2023-05-29T04:22:34;18.50;;;5.43;;
34134;SDS011;20410;55.578;12.968;2023-05-29T04:25:06;19.67;;;5.60;;
34134;SDS011;20410;55.578;12.968;2023-05-29T04:27:32;19.73;;;4.70;;
34134;SDS011;20410;55.578;12.968;2023-05-29T04:30:03;17.43;;;5.80;;
34134;SDS011;20410;55.578;12.968;2023-05-29T04:32:30;18.63;;;5.00;;
34134;SDS011;20410;55.578;12.968;2023-05-29T04:34:56;20.63;;;4.90;;
34134;SDS011;20410;55.578;12.968;2023-05-29T04:37:21;17.00;;;5.30;;
34134;SDS011;20410;55.578;12.968;2023-05-29T04:39:54;20.17;;;4.93;;
34134;SDS011;20410;55.578;12.968;2023-05-29T04:42:20;18.67;;;4.83;;
34134;SDS011;20410;55.578;12.968;2023-05-29T04:44:45;19.40;;;5.07;;
34134;SDS011;20410;55.578;12.968;2023-05-29T04:47:11;19.10;;;5.27;;
34134;SDS011;20410;55.578;12.968;2023-05-29T04:49:39;17.47;;;5.43;;
34134;SDS011;20410;55.578;12.968;2023-05-29T04:52:05;20.00;;;5.17;;
34134;SDS011;20410;55.578;12.968;2023-05-29T04:54:31;17.10;;;4.80;;
34134;SDS011;20410;55.578;12.968;2023-05-29T04:56:56;19.20;;;5.10;;
34134;SDS011;20410;55.578;12.968;2023-05-29T04:59:22;16.80;;;4.60;;
34134;SDS011;20410;55.578;12.968;2023-05-29T05:01:47;13.47;;;4.47;;
34134;SDS011;20410;55.578;12.968;2023-05-29T05:04:13;16.60;;;5.10;;
34134;SDS011;20410;55.578;12.968;2023-05-29T05:06:39;15.03;;;4.77;;
34134;SDS011;20410;55.578;12.968;2023-05-29T05:09:05;19.73;;;5.47;;
34134;SDS011;20410;55.578;12.968;2023-05-29T05:11:30;16.37;;;5.20;;
34134;SDS011;20410;55.578;12.968;2023-05-29T05:13:56;18.07;;;5.17;;
34134;SDS011;20410;55.578;12.968;2023-05-29T05:16:22;17.73;;;5.40;;
34134;SDS011;20410;55.578;12.968;2023-05-29T05:18:47;15.90;;;4.87;;
34134;SDS011;20410;55.578;12.968;2023-05-29T05:21:13;21.53;;;5.33;;
34134;SDS011;20410;55.578;12.968;2023-05-29T05:23:38;17.00;;;4.97;;
34134;SDS011;20410;55.578;12.968;2023-05-29T05:26:05;16.10;;;5.00;;
34134;SDS011;20410;55.578;12.968;2023-05-29T05:28:31;16.30;;;5.10;;
34134;SDS011;20410;55.578;12.968;2023-05-29T05:30:56;19.43;;;5.43;;
34134;SDS011;20410;55.578;12.968;2023-05-29T05:33:22;17.87;;;4.90;;
34134;SDS011;20410;55.578;12.968;2023-05-29T05:35:47;17.63;;;4.80;;
34134;SDS011;20410;55.578;12.968;2023-05-29T05:38:13;22.20;;;5.23;;
34134;SDS011;20410;55.578;12.968;2023-05-29T05:40:38;19.33;;;5.07;;
34134;SDS011;20410;55.578;12.968;2023-05-29T05:43:04;16.80;;;5.00;;
34134;SDS011;20410;55.578;12.968;2023-05-29T05:45:31;17.63;;;4.80;;
34134;SDS011;20410;55.578;12.968;2023-05-29T05:47:56;19.23;;;5.67;;
34134;SDS011;20410;55.578;12.968;2023-05-29T05:50:22;20.50;;;5.37;;
34134;SDS011;20410;55.578;12.968;2023-05-29T05:52:47;24.63;;;5.07;;
34134;SDS011;20410;55.578;12.968;2023-05-29T05:55:13;21.33;;;5.37;;
34134;SDS011;20410;55.578;12.968;2023-05-29T05:57:39;18.27;;;5.43;;
34134;SDS011;20410;55.578;12.968;2023-05-29T06:00:05;23.63;;;5.20;;
34134;SDS011;20410;55.578;12.968;2023-05-29T06:02:37;21.37;;;5.40;;
34134;SDS011;20410;55.578;12.968;2023-05-29T06:05:03;21.27;;;5.77;;
34134;SDS011;20410;55.578;12.968;2023-05-29T06:07:29;20.07;;;5.37;;
34134;SDS011;20410;55.578;12.968;2023-05-29T06:09:55;17.03;;;4.83;;
34134;SDS011;20410;55.578;12.968;2023-05-29T06:12:20;17.07;;;5.17;;
34134;SDS011;20410;55.578;12.968;2023-05-29T06:14:46;18.37;;;5.37;;
34134;SDS011;20410;55.578;12.968;2023-05-29T06:17:12;19.60;;;5.10;;
34134;SDS011;20410;55.578;12.968;2023-05-29T06:19:38;15.10;;;4.97;;
34134;SDS011;20410;55.578;12.968;2023-05-29T06:22:03;19.33;;;4.80;;
34134;SDS011;20410;55.578;12.968;2023-05-29T06:24:29;18.57;;;4.77;;
34134;SDS011;20410;55.578;12.968;2023-05-29T06:26:55;17.27;;;5.50;;
34134;SDS011;20410;55.578;12.968;2023-05-29T06:29:20;16.83;;;4.87;;
34134;SDS011;20410;55.578;12.968;2023-05-29T06:31:46;19.20;;;5.60;;
34134;SDS011;20410;55.578;12.968;2023-05-29T06:34:11;21.73;;;5.40;;
34134;SDS011;20410;55.578;12.968;2023-05-29T06:36:37;14.57;;;4.70;;
34134;SDS011;20410;55.578;12.968;2023-05-29T06:39:03;20.83;;;5.37;;
34134;SDS011;20410;55.578;12.968;2023-05-29T06:41:29;15.00;;;4.57;;
34134;SDS011;20410;55.578;12.968;2023-05-29T06:43:55;16.03;;;5.10;;
34134;SDS011;20410;55.578;12.968;2023-05-29T06:46:20;18.20;;;4.80;;
34134;SDS011;20410;55.578;12.968;2023-05-29T06:48:46;21.33;;;4.97;;
34134;SDS011;20410;55.578;12.968;2023-05-29T06:51:11;17.93;;;5.13;;
34134;SDS011;20410;55.578;12.968;2023-05-29T06:53:37;16.63;;;5.50;;
34134;SDS011;20410;55.578;12.968;2023-05-29T06:56:04;19.33;;;4.90;;
34134;SDS011;20410;55.578;12.968;2023-05-29T06:58:30;17.70;;;5.07;;
34134;SDS011;20410;55.578;12.968;2023-05-29T07:00:56;17.20;;;4.63;;
34134;SDS011;20410;55.578;12.968;2023-05-29T07:03:23;17.27;;;5.10;;
34134;SDS011;20410;55.578;12.968;2023-05-29T07:05:50;15.20;;;4.80;;
34134;SDS011;20410;55.578;12.968;2023-05-29T07:08:15;15.67;;;4.23;;
34134;SDS011;20410;55.578;12.968;2023-05-29T07:10:41;18.50;;;4.73;;
34134;SDS011;20410;55.578;12.968;2023-05-29T07:13:07;14.70;;;4.40;;
34134;SDS011;20410;55.578;12.968;2023-05-29T07:15:33;17.20;;;4.83;;
34134;SDS011;20410;55.578;12.968;2023-05-29T07:17:58;15.97;;;5.00;;
34134;SDS011;20410;55.578;12.968;2023-05-29T07:20:24;19.33;;;5.00;;
34134;SDS011;20410;55.578;12.968;2023-05-29T07:22:49;19.13;;;4.60;;
34134;SDS011;20410;55.578;12.968;2023-05-29T07:25:15;14.73;;;4.43;;
34134;SDS011;20410;55.578;12.968;2023-05-29T07:27:41;18.03;;;4.97;;
34134;SDS011;20410;55.578;12.968;2023-05-29T07:30:07;18.40;;;4.70;;
34134;SDS011;20410;55.578;12.968;2023-05-29T07:32:32;19.63;;;5.17;;
34134;SDS011;20410;55.578;12.968;2023-05-29T07:34:58;17.47;;;4.83;;
34134;SDS011;20410;55.578;12.968;2023-05-29T07:37:24;19.95;;;5.38;;
34134;SDS011;20410;55.578;12.968;2023-05-29T07:39:49;18.83;;;5.30;;
34134;SDS011;20410;55.578;12.968;2023-05-29T07:42:15;18.97;;;5.20;;
34134;SDS011;20410;55.578;12.968;2023-05-29T07:44:41;19.30;;;4.70;;
34134;SDS011;20410;55.578;12.968;2023-05-29T07:47:08;17.10;;;4.83;;
34134;SDS011;20410;55.578;12.968;2023-05-29T07:49:34;18.83;;;4.80;;
34134;SDS011;20410;55.578;12.968;2023-05-29T07:52:03;18.33;;;4.50;;
34134;SDS011;20410;55.578;12.968;2023-05-29T07:54:29;18.07;;;5.10;;
34134;SDS011;20410;55.578;12.968;2023-05-29T07:56:57;18.27;;;4.57;;
34134;SDS011;20410;55.578;12.968;2023-05-29T07:59:23;15.13;;;4.70;;
34134;SDS011;20410;55.578;12.968;2023-05-29T08:01:49;14.20;;;4.27;;
34134;SDS011;20410;55.578;12.968;2023-05-29T08:04:14;15.80;;;4.90;;
34134;SDS011;20410;55.578;12.968;2023-05-29T08:06:40;16.83;;;4.50;;
34134;SDS011;20410;55.578;12.968;2023-05-29T08:09:07;14.40;;;4.33;;
34134;SDS011;20410;55.578;12.968;2023-05-29T08:11:33;15.87;;;4.07;;
34134;SDS011;20410;55.578;12.968;2023-05-29T08:13:59;16.40;;;4.57;;
34134;SDS011;20410;55.578;12.968;2023-05-29T08:16:24;15.87;;;4.70;;
34134;SDS011;20410;55.578;12.968;2023-05-29T08:18:52;16.05;;;4.35;;
34134;SDS011;20410;55.578;12.968;2023-05-29T08:21:17;13.45;;;3.97;;
34134;SDS011;20410;55.578;12.968;2023-05-29T08:23:43;13.33;;;4.23;;
34134;SDS011;20410;55.578;12.968;2023-05-29T08:26:08;16.38;;;4.18;;
34134;SDS011;20410;55.578;12.968;2023-05-29T08:28:34;15.25;;;4.18;;
34134;SDS011;20410;55.578;12.968;2023-05-29T08:31:00;15.43;;;4.43;;
34134;SDS011;20410;55.578;12.968;2023-05-29T08:33:26;13.20;;;3.92;;
34134;SDS011;20410;55.578;12.968;2023-05-29T08:35:52;10.23;;;3.83;;
34134;SDS011;20410;55.578;12.968;2023-05-29T08:38:17;13.00;;;4.28;;
34134;SDS011;20410;55.578;12.968;2023-05-29T08:40:43;12.77;;;4.22;;
34134;SDS011;20410;55.578;12.968;2023-05-29T08:43:12;12.23;;;3.95;;
34134;SDS011;20410;55.578;12.968;2023-05-29T08:45:43;11.18;;;3.72;;
34134;SDS011;20410;55.578;12.968;2023-05-29T08:48:10;10.30;;;3.80;;
34134;SDS011;20410;55.578;12.968;2023-05-29T08:50:41;13.48;;;3.80;;
34134;SDS011;20410;55.578;12.968;2023-05-29T08:53:15;16.35;;;4.00;;
34134;SDS011;20410;55.578;12.968;2023-05-29T08:55:41;16.85;;;3.90;;
34134;SDS011;20410;55.578;12.968;2023-05-29T08:58:07;12.93;;;4.10;;
34134;SDS011;20410;55.578;12.968;2023-05-29T09:00:34;12.95;;;3.45;;
34134;SDS011;20410;55.578;12.968;2023-05-29T09:03:01;12.10;;;4.10;;
34134;SDS011;20410;55.578;12.968;2023-05-29T09:05:28;13.23;;;3.47;;
34134;SDS011;20410;55.578;12.968;2023-05-29T09:07:54;17.15;;;4.40;;
34134;SDS011;20410;55.578;12.968;2023-05-29T09:10:21;15.15;;;4.18;;
34134;SDS011;20410;55.578;12.968;2023-05-29T09:12:53;14.27;;;4.38;;
34134;SDS011;20410;55.578;12.968;2023-05-29T09:15:20;11.82;;;4.05;;
34134;SDS011;20410;55.578;12.968;2023-05-29T09:17:50;11.88;;;3.78;;
34134;SDS011;20410;55.578;12.968;2023-05-29T09:20:17;11.10;;;3.50;;
34134;SDS011;20410;55.578;12.968;2023-05-29T09:22:54;9.75;;;3.38;;
34134;SDS011;20410;55.578;12.968;2023-05-29T09:25:26;12.30;;;3.65;;
34134;SDS011;20410;55.578;12.968;2023-05-29T09:28:00;13.68;;;3.83;;
34134;SDS011;20410;55.578;12.968;2023-05-29T09:33:00;9.68;;;2.78;;
34134;SDS011;20410;55.578;12.968;2023-05-29T09:35:32;10.45;;;3.45;;
34134;SDS011;20410;55.578;12.968;2023-05-29T09:37:58;7.38;;;2.63;;
34134;SDS011;20410;55.578;12.968;2023-05-29T09:40:24;10.63;;;2.85;;
34134;SDS011;20410;55.578;12.968;2023-05-29T09:42:50;7.38;;;2.45;;
34134;SDS011;20410;55.578;12.968;2023-05-29T09:45:19;8.43;;;2.83;;
34134;SDS011;20410;55.578;12.968;2023-05-29T09:47:46;8.57;;;2.55;;
34134;SDS011;20410;55.578;12.968;2023-05-29T09:50:19;11.45;;;3.75;;
34134;SDS011;20410;55.578;12.968;2023-05-29T09:52:47;8.02;;;2.80;;
34134;SDS011;20410;55.578;12.968;2023-05-29T09:55:17;8.13;;;2.78;;
34134;SDS011;20410;55.578;12.968;2023-05-29T09:57:46;9.00;;;3.25;;
34134;SDS011;20410;55.578;12.968;2023-05-29T10:00:15;9.93;;;3.28;;
34134;SDS011;20410;55.578;12.968;2023-05-29T10:02:42;8.27;;;3.00;;
34134;SDS011;20410;55.578;12.968;2023-05-29T10:05:08;8.57;;;3.13;;
34134;SDS011;20410;55.578;12.968;2023-05-29T10:07:36;11.15;;;3.40;;
34134;SDS011;20410;55.578;12.968;2023-05-29T10:10:08;9.40;;;2.58;;
34134;SDS011;20410;55.578;12.968;2023-05-29T10:12:36;7.43;;;2.50;;
34134;SDS011;20410;55.578;12.968;2023-05-29T10:15:05;10.07;;;2.85;;
34134;SDS011;20410;55.578;12.968;2023-05-29T10:17:36;8.00;;;2.50;;
34134;SDS011;20410;55.578;12.968;2023-05-29T10:20:04;7.50;;;2.55;;
34134;SDS011;20410;55.578;12.968;2023-05-29T10:22:34;7.55;;;2.72;;
34134;SDS011;20410;55.578;12.968;2023-05-29T10:25:06;5.65;;;2.15;;
34134;SDS011;20410;55.578;12.968;2023-05-29T10:27:34;5.85;;;1.83;;
34134;SDS011;20410;55.578;12.968;2023-05-29T10:30:02;3.13;;;1.65;;
34134;SDS011;20410;55.578;12.968;2023-05-29T10:32:52;5.75;;;2.00;;
34134;SDS011;20410;55.578;12.968;2023-05-29T10:35:43;4.07;;;1.92;;
34134;SDS011;20410;55.578;12.968;2023-05-29T10:38:20;5.80;;;1.77;;
34134;SDS011;20410;55.578;12.968;2023-05-29T10:40:46;3.80;;;1.70;;
34134;SDS011;20410;55.578;12.968;2023-05-29T10:45:59;10.70;;;2.03;;
34134;SDS011;20410;55.578;12.968;2023-05-29T10:50:55;3.17;;;1.52;;
34134;SDS011;20410;55.578;12.968;2023-05-29T10:53:25;3.10;;;1.40;;
34134;SDS011;20410;55.578;12.968;2023-05-29T10:55:55;4.10;;;1.70;;
34134;SDS011;20410;55.578;12.968;2023-05-29T10:58:21;4.28;;;1.60;;
34134;SDS011;20410;55.578;12.968;2023-05-29T11:00:49;3.42;;;1.50;;
34134;SDS011;20410;55.578;12.968;2023-05-29T11:03:19;2.53;;;1.50;;
34134;SDS011;20410;55.578;12.968;2023-05-29T11:06:01;3.33;;;1.60;;
34134;SDS011;20410;55.578;12.968;2023-05-29T11:08:33;2.95;;;1.40;;
34134;SDS011;20410;55.578;12.968;2023-05-29T11:11:12;3.45;;;1.77;;
34134;SDS011;20410;55.578;12.968;2023-05-29T11:13:39;5.07;;;1.90;;
34134;SDS011;20410;55.578;12.968;2023-05-29T11:16:10;5.25;;;1.70;;
34134;SDS011;20410;55.578;12.968;2023-05-29T11:18:46;3.47;;;1.73;;
34134;SDS011;20410;55.578;12.968;2023-05-29T11:24:18;5.03;;;1.73;;
34134;SDS011;20410;55.578;12.968;2023-05-29T11:26:55;4.13;;;1.77;;
34134;SDS011;20410;55.578;12.968;2023-05-29T11:29:22;4.82;;;1.70;;
34134;SDS011;20410;55.578;12.968;2023-05-29T11:31:57;4.10;;;1.83;;
34134;SDS011;20410;55.578;12.968;2023-05-29T11:34:27;4.22;;;1.63;;
34134;SDS011;20410;55.578;12.968;2023-05-29T11:36:54;2.60;;;1.52;;
34134;SDS011;20410;55.578;12.968;2023-05-29T11:39:25;4.32;;;1.50;;
34134;SDS011;20410;55.578;12.968;2023-05-29T11:41:51;3.15;;;1.50;;
34134;SDS011;20410;55.578;12.968;2023-05-29T11:44:18;3.30;;;1.58;;
34134;SDS011;20410;55.578;12.968;2023-05-29T11:46:44;4.53;;;1.80;;
34134;SDS011;20410;55.578;12.968;2023-05-29T11:49:10;4.97;;;1.75;;
34134;SDS011;20410;55.578;12.968;2023-05-29T11:51:35;4.75;;;1.70;;
34134;SDS011;20410;55.578;12.968;2023-05-29T11:54:01;3.80;;;1.60;;
34134;SDS011;20410;55.578;12.968;2023-05-29T11:56:27;4.32;;;1.65;;
34134;SDS011;20410;55.578;12.968;2023-05-29T11:58:54;2.88;;;1.55;;
34134;SDS011;20410;55.578;12.968;2023-05-29T12:01:23;2.40;;;1.38;;
34134;SDS011;20410;55.578;12.968;2023-05-29T12:03:50;5.40;;;1.50;;
34134;SDS011;20410;55.578;12.968;2023-05-29T12:06:16;4.28;;;2.05;;
34134;SDS011;20410;55.578;12.968;2023-05-29T12:08:55;2.42;;;1.60;;
34134;SDS011;20410;55.578;12.968;2023-05-29T12:11:24;2.67;;;1.60;;
34134;SDS011;20410;55.578;12.968;2023-05-29T12:13:59;5.10;;;1.40;;
34134;SDS011;20410;55.578;12.968;2023-05-29T12:16:26;2.78;;;1.42;;
34134;SDS011;20410;55.578;12.968;2023-05-29T12:18:53;3.58;;;1.55;;
34134;SDS011;20410;55.578;12.968;2023-05-29T12:21:21;2.92;;;1.40;;
34134;SDS011;20410;55.578;12.968;2023-05-29T12:23:47;4.38;;;1.73;;
34134;SDS011;20410;55.578;12.968;2023-05-29T12:26:13;2.88;;;1.40;;
34134;SDS011;20410;55.578;12.968;2023-05-29T12:28:44;4.55;;;1.70;;
34134;SDS011;20410;55.578;12.968;2023-05-29T12:31:10;2.47;;;1.42;;
34134;SDS011;20410;55.578;12.968;2023-05-29T12:33:36;2.45;;;1.38;;
34134;SDS011;20410;55.578;12.968;2023-05-29T12:36:08;1.92;;;1.45;;
34134;SDS011;20410;55.578;12.968;2023-05-29T12:38:46;6.20;;;1.50;;
34134;SDS011;20410;55.578;12.968;2023-05-29T12:41:26;4.97;;;1.73;;
34134;SDS011;20410;55.578;12.968;2023-05-29T12:43:54;2.83;;;1.45;;
34134;SDS011;20410;55.578;12.968;2023-05-29T12:46:23;2.22;;;1.38;;
34134;SDS011;20410;55.578;12.968;2023-05-29T12:48:51;4.03;;;1.42;;
34134;SDS011;20410;55.578;12.968;2023-05-29T12:51:24;5.68;;;1.80;;
34134;SDS011;20410;55.578;12.968;2023-05-29T12:53:51;2.55;;;1.50;;
34134;SDS011;20410;55.578;12.968;2023-05-29T12:56:20;3.30;;;1.70;;
34134;SDS011;20410;55.578;12.968;2023-05-29T12:58:52;4.57;;;1.75;;
34134;SDS011;20410;55.578;12.968;2023-05-29T13:01:18;2.50;;;1.58;;
34134;SDS011;20410;55.578;12.968;2023-05-29T13:03:43;5.30;;;1.70;;
34134;SDS011;20410;55.578;12.968;2023-05-29T13:06:10;2.58;;;1.42;;
34134;SDS011;20410;55.578;12.968;2023-05-29T13:08:36;3.65;;;1.42;;
34134;SDS011;20410;55.578;12.968;2023-05-29T13:11:01;5.50;;;1.35;;
34134;SDS011;20410;55.578;12.968;2023-05-29T13:13:27;3.80;;;1.60;;
34134;SDS011;20410;55.578;12.968;2023-05-29T13:15:52;3.65;;;1.40;;
34134;SDS011;20410;55.578;12.968;2023-05-29T13:18:18;3.65;;;1.80;;
34134;SDS011;20410;55.578;12.968;2023-05-29T13:20:44;3.15;;;1.70;;
34134;SDS011;20410;55.578;12.968;2023-05-29T13:23:09;4.00;;;1.52;;
34134;SDS011;20410;55.578;12.968;2023-05-29T13:25:35;4.43;;;1.70;;
34134;SDS011;20410;55.578;12.968;2023-05-29T13:28:00;3.08;;;1.50;;
34134;SDS011;20410;55.578;12.968;2023-05-29T13:30:26;3.70;;;1.60;;
34134;SDS011;20410;55.578;12.968;2023-05-29T13:32:52;3.07;;;1.67;;
34134;SDS011;20410;55.578;12.968;2023-05-29T13:35:18;2.38;;;1.55;;
34134;SDS011;20410;55.578;12.968;2023-05-29T13:37:44;3.20;;;1.50;;
34134;SDS011;20410;55.578;12.968;2023-05-29T13:40:10;4.10;;;1.50;;
34134;SDS011;20410;55.578;12.968;2023-05-29T13:42:38;1.88;;;1.33;;
34134;SDS011;20410;55.578;12.968;2023-05-29T13:45:05;4.30;;;1.42;;
34134;SDS011;20410;55.578;12.968;2023-05-29T13:47:32;3.65;;;1.50;;
34134;SDS011;20410;55.578;12.968;2023-05-29T13:49:58;4.63;;;1.80;;
34134;SDS011;20410;55.578;12.968;2023-05-29T13:52:24;3.08;;;1.50;;
34134;SDS011;20410;55.578;12.968;2023-05-29T13:54:50;4.10;;;1.63;;
34134;SDS011;20410;55.578;12.968;2023-05-29T13:57:16;4.55;;;1.90;;
34134;SDS011;20410;55.578;12.968;2023-05-29T13:59:42;3.33;;;1.60;;
34134;SDS011;20410;55.578;12.968;2023-05-29T14:02:07;2.88;;;1.60;;
34134;SDS011;20410;55.578;12.968;2023-05-29T14:04:33;6.53;;;1.60;;
34134;SDS011;20410;55.578;12.968;2023-05-29T14:06:59;4.90;;;1.98;;
34134;SDS011;20410;55.578;12.968;2023-05-29T14:09:25;3.90;;;1.88;;
34134;SDS011;20410;55.578;12.968;2023-05-29T14:11:54;4.70;;;1.70;;
34134;SDS011;20410;55.578;12.968;2023-05-29T14:14:21;4.18;;;1.83;;
34134;SDS011;20410;55.578;12.968;2023-05-29T14:16:47;3.70;;;2.33;;
34134;SDS011;20410;55.578;12.968;2023-05-29T14:19:14;4.03;;;1.80;;
34134;SDS011;20410;55.578;12.968;2023-05-29T14:21:39;6.13;;;2.00;;
34134;SDS011;20410;55.578;12.968;2023-05-29T14:24:05;4.75;;;2.00;;
34134;SDS011;20410;55.578;12.968;2023-05-29T14:26:32;3.67;;;1.90;;
34134;SDS011;20410;55.578;12.968;2023-05-29T14:28:58;3.50;;;1.80;;
34134;SDS011;20410;55.578;12.968;2023-05-29T14:31:23;5.37;;;2.80;;
34134;SDS011;20410;55.578;12.968;2023-05-29T14:33:49;7.93;;;3.60;;
34134;SDS011;20410;55.578;12.968;2023-05-29T14:36:14;5.18;;;2.88;;
34134;SDS011;20410;55.578;12.968;2023-05-29T14:38:40;4.07;;;2.07;;
34134;SDS011;20410;55.578;12.968;2023-05-29T14:41:08;5.57;;;1.70;;
34134;SDS011;20410;55.578;12.968;2023-05-29T14:43:33;5.07;;;1.80;;